Startpagina
METAR-TAF:

METAR-TAF

Vliegvelden :

Córdoba, Argentinië

breedte: 31-19S, lengte: 064-13W, hoogte: 484 m

Actueel weer

Dit bericht is 27 minuten geleden gemaakt, om 23:00 UTC
Wind 8 kt uit het oostnoordoosten
Temperatuur 27°C
Vochtigheid 37%
Druk 1014 hPa
Zicht 10 km of meer
geen wolken onder 1500 m en geen cumulonimbus

METAR: SACO 192300Z 07008KT CAVOK 27/11 Q1014

Tijdstip: 20:27 (23:27 UTC)

Verwachting

Dit bericht is 6 uur en het 27 minuten geleden gemaakt, om 17:00 UTC
Verwachting geldig van 19 om 18 UTC tot 20 om 18 UTC
Wind 10 kt uit het noordoosten
Zicht 10 km of meer
Weinig wolken op 3000 ft
Wijzigt naar
van 19 om 00 UTC tot 20 om 03 UTC
Wind 5 kt uit het noordwesten
Zicht 10 km of meer
geen wolken onder 1500 m en geen cumulonimbus

TAF: SACO 191700Z 1918/2018 05010KT 9999 FEW030 TX34/2018Z TN17/2010Z BECMG 1900/2003 32005KT CAVOK

Waarnemingen en weersverwachtingen van meer dan 4000 vliegvelden (METAR en TAF).

De beschikbare stations zijn de gele en rode punten op de kaart.

Ga met uw muis naar het station om de naam te zien.

Klik dan om waarnemingen en weersverwachtingen te zien.

kaart wijzigen: klik op de groene knoppen met een zwart kruis om in te zoomen, op de groene knop met een streepje om uit te zoomen of op de groene pijlen voor aangrenzende kaarten.


METAR-TAF: